Аэропорт: Львов имени Даниила Галицкого. Львов

ICAO: UKLL

METAR:
2018/09/23 11:00
UKLL 231100Z 25003MPS 230V290 9999 BKN030 15/09 Q1018 R31/CLRD// NOSIG
METAR:
2018/09/23 12:15
TAF UKLL 231106Z 2312/2412 23005G10MPS 9999 BKN017 
      TEMPO 2312/2315 3000 -SHRA BKN020CB 
      BECMG 2315/2316 18005G10MPS 
      TEMPO 2400/2406 24012G19MPS 1500 TSRAGR SQ BKN006 BKN018CB 
      BECMG 2406/2407 27008G13MPS BKN010 
      TEMPO 2407/2412 28011G19MPS 2100 -SHRA BKN007 BKN022CB